sensor_id;sensor_type;location;lat;lon;timestamp;pressure;altitude;pressure_sealevel;temperature;humidity
31005;BME280;17676;52.254;4.490;2023-04-30T00:01:52;101956.75;;;9.17;100.00
31005;BME280;17676;52.254;4.490;2023-04-30T00:04:18;101960.66;;;9.22;100.00
31005;BME280;17676;52.254;4.490;2023-04-30T00:06:44;101969.72;;;9.21;100.00
31005;BME280;17676;52.254;4.490;2023-04-30T00:09:10;101970.59;;;9.22;100.00
31005;BME280;17676;52.254;4.490;2023-04-30T00:11:36;101964.34;;;9.13;100.00
31005;BME280;17676;52.254;4.490;2023-04-30T00:14:02;101967.59;;;9.09;100.00
31005;BME280;17676;52.254;4.490;2023-04-30T00:16:28;101972.81;;;9.10;100.00
31005;BME280;17676;52.254;4.490;2023-04-30T00:18:53;101968.06;;;9.12;100.00
31005;BME280;17676;52.254;4.490;2023-04-30T00:21:19;101985.13;;;9.13;100.00
31005;BME280;17676;52.254;4.490;2023-04-30T00:23:45;101967.28;;;8.96;100.00
31005;BME280;17676;52.254;4.490;2023-04-30T00:26:10;101973.81;;;8.93;100.00
31005;BME280;17676;52.254;4.490;2023-04-30T00:28:36;101992.72;;;9.01;100.00
31005;BME280;17676;52.254;4.490;2023-04-30T00:31:01;101985.47;;;8.94;100.00
31005;BME280;17676;52.254;4.490;2023-04-30T00:33:31;101998.47;;;8.98;100.00
31005;BME280;17676;52.254;4.490;2023-04-30T00:35:57;101988.19;;;8.86;100.00
31005;BME280;17676;52.254;4.490;2023-04-30T00:38:23;101982.94;;;8.84;100.00
31005;BME280;17676;52.254;4.490;2023-04-30T00:40:49;101987.00;;;8.72;100.00
31005;BME280;17676;52.254;4.490;2023-04-30T00:43:15;101993.56;;;8.70;100.00
31005;BME280;17676;52.254;4.490;2023-04-30T00:45:40;101997.13;;;8.62;100.00
31005;BME280;17676;52.254;4.490;2023-04-30T00:48:06;101987.84;;;8.57;100.00
31005;BME280;17676;52.254;4.490;2023-04-30T00:50:35;102008.09;;;8.69;100.00
31005;BME280;17676;52.254;4.490;2023-04-30T00:53:01;102005.22;;;8.70;100.00
31005;BME280;17676;52.254;4.490;2023-04-30T00:55:27;102025.97;;;8.70;100.00
31005;BME280;17676;52.254;4.490;2023-04-30T00:57:53;102052.78;;;8.63;100.00
31005;BME280;17676;52.254;4.490;2023-04-30T01:00:19;102067.44;;;8.61;100.00
31005;BME280;17676;52.254;4.490;2023-04-30T01:02:45;102094.44;;;8.69;100.00
31005;BME280;17676;52.254;4.490;2023-04-30T01:05:11;102094.59;;;8.67;100.00
31005;BME280;17676;52.254;4.490;2023-04-30T01:07:37;102094.28;;;8.70;100.00
31005;BME280;17676;52.254;4.490;2023-04-30T01:10:06;102099.53;;;8.72;100.00
31005;BME280;17676;52.254;4.490;2023-04-30T01:13:07;102121.81;;;8.82;100.00
31005;BME280;17676;52.254;4.490;2023-04-30T01:15:59;102116.03;;;8.61;100.00
31005;BME280;17676;52.254;4.490;2023-04-30T01:18:32;102128.84;;;8.67;100.00
31005;BME280;17676;52.254;4.490;2023-04-30T01:21:04;102136.94;;;8.67;100.00
31005;BME280;17676;52.254;4.490;2023-04-30T01:29:09;102163.19;;;8.49;100.00
31005;BME280;17676;52.254;4.490;2023-04-30T01:31:36;102192.91;;;8.57;100.00
31005;BME280;17676;52.254;4.490;2023-04-30T01:34:02;102183.28;;;8.54;100.00
31005;BME280;17676;52.254;4.490;2023-04-30T01:47:47;102205.97;;;8.36;100.00
31005;BME280;17676;52.254;4.490;2023-04-30T01:53:26;102195.81;;;8.30;100.00
31005;BME280;17676;52.254;4.490;2023-04-30T01:56:05;102218.69;;;8.26;100.00
31005;BME280;17676;52.254;4.490;2023-04-30T01:58:34;102206.16;;;8.17;100.00
31005;BME280;17676;52.254;4.490;2023-04-30T02:01:00;102221.41;;;8.26;100.00
31005;BME280;17676;52.254;4.490;2023-04-30T02:03:25;102220.88;;;8.22;100.00
31005;BME280;17676;52.254;4.490;2023-04-30T02:05:52;102219.06;;;8.31;100.00
31005;BME280;17676;52.254;4.490;2023-04-30T02:08:17;102201.44;;;8.19;100.00
31005;BME280;17676;52.254;4.490;2023-04-30T02:10:43;102210.31;;;8.29;100.00
31005;BME280;17676;52.254;4.490;2023-04-30T02:13:09;102209.66;;;8.35;100.00
31005;BME280;17676;52.254;4.490;2023-04-30T02:15:34;102205.56;;;8.31;100.00
31005;BME280;17676;52.254;4.490;2023-04-30T02:18:00;102207.34;;;8.40;100.00
31005;BME280;17676;52.254;4.490;2023-04-30T02:20:26;102213.75;;;8.47;100.00
31005;BME280;17676;52.254;4.490;2023-04-30T02:22:52;102220.00;;;8.47;100.00
31005;BME280;17676;52.254;4.490;2023-04-30T02:25:17;102200.22;;;8.39;100.00
31005;BME280;17676;52.254;4.490;2023-04-30T02:27:43;102202.66;;;8.50;100.00
31005;BME280;17676;52.254;4.490;2023-04-30T02:30:09;102214.50;;;8.57;100.00
31005;BME280;17676;52.254;4.490;2023-04-30T02:32:34;102221.56;;;8.58;100.00
31005;BME280;17676;52.254;4.490;2023-04-30T02:35:00;102208.03;;;8.50;100.00
31005;BME280;17676;52.254;4.490;2023-04-30T02:37:26;102211.44;;;8.52;100.00
31005;BME280;17676;52.254;4.490;2023-04-30T02:39:52;102219.91;;;8.57;100.00
31005;BME280;17676;52.254;4.490;2023-04-30T02:42:17;102215.78;;;8.45;100.00
31005;BME280;17676;52.254;4.490;2023-04-30T02:44:43;102225.53;;;8.38;100.00
31005;BME280;17676;52.254;4.490;2023-04-30T02:47:09;102231.94;;;8.37;100.00
31005;BME280;17676;52.254;4.490;2023-04-30T02:49:34;102229.53;;;8.34;100.00
31005;BME280;17676;52.254;4.490;2023-04-30T02:52:01;102221.94;;;8.29;100.00
31005;BME280;17676;52.254;4.490;2023-04-30T02:54:27;102223.94;;;8.27;100.00
31005;BME280;17676;52.254;4.490;2023-04-30T02:56:52;102217.69;;;8.27;100.00
31005;BME280;17676;52.254;4.490;2023-04-30T02:59:18;102220.44;;;8.35;100.00
31005;BME280;17676;52.254;4.490;2023-04-30T03:01:44;102215.03;;;8.35;100.00
31005;BME280;17676;52.254;4.490;2023-04-30T03:04:09;102211.16;;;8.29;100.00
31005;BME280;17676;52.254;4.490;2023-04-30T03:06:35;102221.44;;;8.34;100.00
31005;BME280;17676;52.254;4.490;2023-04-30T03:09:01;102225.97;;;8.25;100.00
31005;BME280;17676;52.254;4.490;2023-04-30T03:11:26;102235.59;;;8.28;100.00
31005;BME280;17676;52.254;4.490;2023-04-30T03:13:52;102225.19;;;8.15;100.00
31005;BME280;17676;52.254;4.490;2023-04-30T03:16:18;102234.06;;;8.08;100.00
31005;BME280;17676;52.254;4.490;2023-04-30T03:18:46;102229.00;;;8.05;100.00
31005;BME280;17676;52.254;4.490;2023-04-30T03:21:11;102229.28;;;8.02;100.00
31005;BME280;17676;52.254;4.490;2023-04-30T03:23:37;102231.31;;;8.00;100.00
31005;BME280;17676;52.254;4.490;2023-04-30T03:26:03;102232.94;;;7.93;100.00
31005;BME280;17676;52.254;4.490;2023-04-30T03:28:28;102234.00;;;8.00;100.00
31005;BME280;17676;52.254;4.490;2023-04-30T03:30:54;102236.25;;;7.87;100.00
31005;BME280;17676;52.254;4.490;2023-04-30T03:33:20;102216.88;;;7.83;100.00
31005;BME280;17676;52.254;4.490;2023-04-30T03:35:45;102219.78;;;7.90;100.00
31005;BME280;17676;52.254;4.490;2023-04-30T03:38:11;102214.31;;;7.82;100.00
31005;BME280;17676;52.254;4.490;2023-04-30T03:40:37;102222.41;;;7.82;100.00
31005;BME280;17676;52.254;4.490;2023-04-30T03:43:02;102224.94;;;7.83;100.00
31005;BME280;17676;52.254;4.490;2023-04-30T03:45:28;102222.03;;;7.77;100.00
31005;BME280;17676;52.254;4.490;2023-04-30T03:47:54;102210.88;;;7.72;100.00
31005;BME280;17676;52.254;4.490;2023-04-30T03:50:20;102232.66;;;7.78;100.00
31005;BME280;17676;52.254;4.490;2023-04-30T03:52:45;102236.59;;;7.84;100.00
31005;BME280;17676;52.254;4.490;2023-04-30T03:55:11;102219.03;;;7.80;100.00
31005;BME280;17676;52.254;4.490;2023-04-30T03:57:38;102206.53;;;7.79;100.00
31005;BME280;17676;52.254;4.490;2023-04-30T04:00:05;102218.19;;;7.79;100.00
31005;BME280;17676;52.254;4.490;2023-04-30T04:02:38;102210.88;;;7.72;100.00
31005;BME280;17676;52.254;4.490;2023-04-30T04:05:04;102215.41;;;7.71;100.00
31005;BME280;17676;52.254;4.490;2023-04-30T04:07:30;102206.09;;;7.66;100.00
31005;BME280;17676;52.254;4.490;2023-04-30T04:09:55;102225.75;;;7.76;100.00
31005;BME280;17676;52.254;4.490;2023-04-30T04:12:21;102210.34;;;7.68;100.00
31005;BME280;17676;52.254;4.490;2023-04-30T04:14:47;102210.88;;;7.72;100.00
31005;BME280;17676;52.254;4.490;2023-04-30T04:17:13;102207.47;;;7.70;100.00
31005;BME280;17676;52.254;4.490;2023-04-30T04:19:39;102212.56;;;7.73;100.00
31005;BME280;17676;52.254;4.490;2023-04-30T04:22:05;102216.88;;;7.66;100.00
31005;BME280;17676;52.254;4.490;2023-04-30T04:24:31;102223.88;;;7.76;100.00
31005;BME280;17676;52.254;4.490;2023-04-30T04:26:57;102223.72;;;7.78;100.00
31005;BME280;17676;52.254;4.490;2023-04-30T04:29:23;102215.03;;;7.84;100.00
31005;BME280;17676;52.254;4.490;2023-04-30T04:31:49;102217.16;;;7.80;100.00
31005;BME280;17676;52.254;4.490;2023-04-30T04:34:15;102219.34;;;7.77;100.00
31005;BME280;17676;52.254;4.490;2023-04-30T04:36:41;102218.81;;;7.73;100.00
31005;BME280;17676;52.254;4.490;2023-04-30T04:39:07;102217.09;;;7.72;100.00
31005;BME280;17676;52.254;4.490;2023-04-30T04:41:34;102237.97;;;7.88;100.00
31005;BME280;17676;52.254;4.490;2023-04-30T04:44:02;102214.81;;;7.77;100.00
31005;BME280;17676;52.254;4.490;2023-04-30T04:46:30;102231.28;;;7.74;100.00
31005;BME280;17676;52.254;4.490;2023-04-30T04:48:56;102243.59;;;7.77;100.00
31005;BME280;17676;52.254;4.490;2023-04-30T04:51:22;102253.28;;;7.87;100.00
31005;BME280;17676;52.254;4.490;2023-04-30T04:53:47;102255.91;;;7.79;100.00
31005;BME280;17676;52.254;4.490;2023-04-30T04:56:13;102237.19;;;7.78;100.00
31005;BME280;17676;52.254;4.490;2023-04-30T04:58:40;102234.66;;;7.76;100.00
31005;BME280;17676;52.254;4.490;2023-04-30T05:01:05;102245.72;;;7.91;100.00
31005;BME280;17676;52.254;4.490;2023-04-30T05:03:32;102259.66;;;8.04;100.00
31005;BME280;17676;52.254;4.490;2023-04-30T05:05:58;102243.72;;;7.93;100.00
31005;BME280;17676;52.254;4.490;2023-04-30T05:08:24;102249.63;;;7.96;100.00
31005;BME280;17676;52.254;4.490;2023-04-30T05:10:50;102260.19;;;8.07;100.00
31005;BME280;17676;52.254;4.490;2023-04-30T05:13:15;102260.75;;;8.19;100.00
31005;BME280;17676;52.254;4.490;2023-04-30T05:15:41;102259.88;;;8.28;100.00
31005;BME280;17676;52.254;4.490;2023-04-30T05:18:07;102248.25;;;8.35;100.00
31005;BME280;17676;52.254;4.490;2023-04-30T05:20:32;102270.47;;;8.55;100.00
31005;BME280;17676;52.254;4.490;2023-04-30T05:22:58;102271.75;;;8.76;100.00
31005;BME280;17676;52.254;4.490;2023-04-30T05:25:27;102270.63;;;8.87;100.00
31005;BME280;17676;52.254;4.490;2023-04-30T05:27:52;102274.72;;;8.99;100.00
31005;BME280;17676;52.254;4.490;2023-04-30T05:30:18;102262.91;;;9.00;100.00
31005;BME280;17676;52.254;4.490;2023-04-30T05:32:43;102267.03;;;9.20;100.00
31005;BME280;17676;52.254;4.490;2023-04-30T05:35:15;102271.78;;;9.26;100.00
31005;BME280;17676;52.254;4.490;2023-04-30T05:37:41;102273.31;;;9.36;100.00
31005;BME280;17676;52.254;4.490;2023-04-30T05:40:07;102277.41;;;9.48;100.00
31005;BME280;17676;52.254;4.490;2023-04-30T05:42:33;102258.97;;;9.44;100.00
31005;BME280;17676;52.254;4.490;2023-04-30T05:45:00;102269.13;;;9.50;100.00
31005;BME280;17676;52.254;4.490;2023-04-30T05:47:28;102289.44;;;9.62;100.00
31005;BME280;17676;52.254;4.490;2023-04-30T05:49:54;102273.03;;;9.55;100.00
31005;BME280;17676;52.254;4.490;2023-04-30T05:52:20;102289.59;;;9.68;100.00
31005;BME280;17676;52.254;4.490;2023-04-30T05:54:46;102289.28;;;9.71;100.00
31005;BME280;17676;52.254;4.490;2023-04-30T05:57:12;102279.66;;;9.69;100.00
31005;BME280;17676;52.254;4.490;2023-04-30T05:59:38;102294.88;;;9.78;100.00
31005;BME280;17676;52.254;4.490;2023-04-30T06:02:04;102299.22;;;9.71;100.00
31005;BME280;17676;52.254;4.490;2023-04-30T06:04:30;102286.03;;;9.68;100.00
31005;BME280;17676;52.254;4.490;2023-04-30T06:06:56;102292.63;;;9.65;100.00
31005;BME280;17676;52.254;4.490;2023-04-30T06:09:21;102292.63;;;9.65;100.00
31005;BME280;17676;52.254;4.490;2023-04-30T06:11:47;102305.00;;;9.84;100.00
31005;BME280;17676;52.254;4.490;2023-04-30T06:14:17;102288.78;;;10.00;100.00
31005;BME280;17676;52.254;4.490;2023-04-30T06:16:44;102291.19;;;10.11;100.00
31005;BME280;17676;52.254;4.490;2023-04-30T06:19:11;102306.75;;;10.25;100.00
31005;BME280;17676;52.254;4.490;2023-04-30T06:21:37;102297.06;;;10.47;100.00
31005;BME280;17676;52.254;4.490;2023-04-30T06:24:03;102296.03;;;11.10;100.00
31005;BME280;17676;52.254;4.490;2023-04-30T06:26:28;102298.91;;;12.95;100.00
31005;BME280;17676;52.254;4.490;2023-04-30T06:28:54;102296.97;;;14.59;100.00
31005;BME280;17676;52.254;4.490;2023-04-30T06:31:20;102298.66;;;16.08;100.00
31005;BME280;17676;52.254;4.490;2023-04-30T06:33:46;102296.38;;;16.44;100.00
31005;BME280;17676;52.254;4.490;2023-04-30T06:36:11;102304.88;;;17.63;100.00
31005;BME280;17676;52.254;4.490;2023-04-30T06:38:37;102296.63;;;18.31;100.00
31005;BME280;17676;52.254;4.490;2023-04-30T06:41:03;102295.88;;;18.91;100.00
31005;BME280;17676;52.254;4.490;2023-04-30T06:43:28;102293.03;;;18.31;100.00
31005;BME280;17676;52.254;4.490;2023-04-30T06:45:55;102297.41;;;18.45;100.00
31005;BME280;17676;52.254;4.490;2023-04-30T06:48:20;102303.25;;;18.73;100.00
31005;BME280;17676;52.254;4.490;2023-04-30T06:50:46;102299.56;;;19.40;100.00
31005;BME280;17676;52.254;4.490;2023-04-30T06:53:11;102300.03;;;19.66;100.00
31005;BME280;17676;52.254;4.490;2023-04-30T06:55:37;102304.56;;;20.31;100.00
31005;BME280;17676;52.254;4.490;2023-04-30T06:58:03;102301.31;;;20.23;100.00
31005;BME280;17676;52.254;4.490;2023-04-30T07:00:33;102309.50;;;20.75;100.00
31005;BME280;17676;52.254;4.490;2023-04-30T07:02:58;102302.31;;;18.79;100.00
31005;BME280;17676;52.254;4.490;2023-04-30T07:05:32;102300.63;;;18.35;100.00
31005;BME280;17676;52.254;4.490;2023-04-30T07:08:00;102309.78;;;16.78;100.00
31005;BME280;17676;52.254;4.490;2023-04-30T07:10:26;102304.34;;;16.71;100.00
31005;BME280;17676;52.254;4.490;2023-04-30T07:12:52;102309.63;;;17.43;100.00
31005;BME280;17676;52.254;4.490;2023-04-30T07:15:18;102298.09;;;18.03;100.00
31005;BME280;17676;52.254;4.490;2023-04-30T07:17:44;102306.38;;;18.94;100.00
31005;BME280;17676;52.254;4.490;2023-04-30T07:20:10;102306.50;;;19.42;100.00
31005;BME280;17676;52.254;4.490;2023-04-30T07:22:37;102297.31;;;19.66;100.00
31005;BME280;17676;52.254;4.490;2023-04-30T07:25:03;102310.13;;;20.13;100.00
31005;BME280;17676;52.254;4.490;2023-04-30T07:27:29;102309.50;;;20.87;100.00
31005;BME280;17676;52.254;4.490;2023-04-30T07:29:55;102316.22;;;21.02;100.00
31005;BME280;17676;52.254;4.490;2023-04-30T07:32:21;102299.81;;;18.28;100.00
31005;BME280;17676;52.254;4.490;2023-04-30T07:34:47;102308.66;;;19.70;100.00
31005;BME280;17676;52.254;4.490;2023-04-30T07:37:13;102310.66;;;20.04;100.00
31005;BME280;17676;52.254;4.490;2023-04-30T07:39:38;102306.16;;;20.62;100.00
31005;BME280;17676;52.254;4.490;2023-04-30T07:42:06;102302.47;;;19.74;100.00
31005;BME280;17676;52.254;4.490;2023-04-30T07:44:31;102302.47;;;19.74;100.00
31005;BME280;17676;52.254;4.490;2023-04-30T07:46:57;102324.06;;;20.00;100.00
31005;BME280;17676;52.254;4.490;2023-04-30T07:49:24;102302.22;;;21.15;100.00
31005;BME280;17676;52.254;4.490;2023-04-30T07:51:50;102315.31;;;19.44;100.00
31005;BME280;17676;52.254;4.490;2023-04-30T07:54:16;102297.19;;;20.02;100.00
31005;BME280;17676;52.254;4.490;2023-04-30T07:56:47;102310.09;;;20.66;100.00
31005;BME280;17676;52.254;4.490;2023-04-30T07:59:13;102306.97;;;21.31;100.00
31005;BME280;17676;52.254;4.490;2023-04-30T08:01:39;102315.63;;;21.00;100.00
31005;BME280;17676;52.254;4.490;2023-04-30T08:04:05;102311.00;;;21.40;100.00
31005;BME280;17676;52.254;4.490;2023-04-30T08:06:32;102303.72;;;22.18;100.00
31005;BME280;17676;52.254;4.490;2023-04-30T08:08:57;102315.25;;;21.99;100.00
31005;BME280;17676;52.254;4.490;2023-04-30T08:11:23;102320.31;;;22.84;100.00
31005;BME280;17676;52.254;4.490;2023-04-30T08:13:58;102309.41;;;22.12;100.00
31005;BME280;17676;52.254;4.490;2023-04-30T08:16:27;102306.69;;;21.44;100.00
31005;BME280;17676;52.254;4.490;2023-04-30T08:18:53;102318.41;;;21.51;100.00
31005;BME280;17676;52.254;4.490;2023-04-30T08:21:19;102306.41;;;22.13;100.00
31005;BME280;17676;52.254;4.490;2023-04-30T08:23:48;102313.41;;;23.42;100.00
31005;BME280;17676;52.254;4.490;2023-04-30T08:26:14;102315.31;;;23.63;100.00
31005;BME280;17676;52.254;4.490;2023-04-30T08:28:39;102309.28;;;23.66;100.00
31005;BME280;17676;52.254;4.490;2023-04-30T08:31:05;102299.75;;;23.57;100.00
31005;BME280;17676;52.254;4.490;2023-04-30T08:33:31;102316.78;;;22.39;100.00
31005;BME280;17676;52.254;4.490;2023-04-30T08:35:59;102315.31;;;22.65;100.00
31005;BME280;17676;52.254;4.490;2023-04-30T08:38:27;102310.75;;;19.86;100.00
31005;BME280;17676;52.254;4.490;2023-04-30T08:41:02;102320.63;;;20.57;100.00
31005;BME280;17676;52.254;4.490;2023-04-30T08:43:30;102306.50;;;20.01;100.00
31005;BME280;17676;52.254;4.490;2023-04-30T08:46:00;102305.06;;;21.60;100.00
31005;BME280;17676;52.254;4.490;2023-04-30T08:48:27;102305.25;;;21.30;100.00
31005;BME280;17676;52.254;4.490;2023-04-30T08:50:53;102307.97;;;22.09;100.00
31005;BME280;17676;52.254;4.490;2023-04-30T08:53:20;102306.63;;;22.56;100.00
31005;BME280;17676;52.254;4.490;2023-04-30T08:55:47;102299.22;;;22.45;100.00
31005;BME280;17676;52.254;4.490;2023-04-30T08:58:12;102323.63;;;21.64;100.00
31005;BME280;17676;52.254;4.490;2023-04-30T09:00:39;102322.22;;;21.50;100.00
31005;BME280;17676;52.254;4.490;2023-04-30T09:03:14;102305.94;;;20.98;100.00
31005;BME280;17676;52.254;4.490;2023-04-30T09:05:40;102303.72;;;21.62;100.00
31005;BME280;17676;52.254;4.490;2023-04-30T09:08:07;102293.19;;;22.15;100.00
31005;BME280;17676;52.254;4.490;2023-04-30T09:10:34;102304.72;;;22.12;100.00
31005;BME280;17676;52.254;4.490;2023-04-30T09:13:00;102315.88;;;22.34;100.00
31005;BME280;17676;52.254;4.490;2023-04-30T09:15:27;102304.47;;;22.96;100.00
31005;BME280;17676;52.254;4.490;2023-04-30T09:18:06;102309.69;;;23.31;100.00
31005;BME280;17676;52.254;4.490;2023-04-30T09:20:35;102297.31;;;23.60;100.00
31005;BME280;17676;52.254;4.490;2023-04-30T09:23:06;102295.44;;;23.66;100.00
31005;BME280;17676;52.254;4.490;2023-04-30T09:25:41;102294.13;;;24.21;100.00
31005;BME280;17676;52.254;4.490;2023-04-30T09:28:08;102291.88;;;22.18;100.00
31005;BME280;17676;52.254;4.490;2023-04-30T09:30:35;102294.72;;;22.23;100.00
31005;BME280;17676;52.254;4.490;2023-04-30T09:33:01;102291.69;;;22.74;100.00
31005;BME280;17676;52.254;4.490;2023-04-30T09:35:31;102291.78;;;22.29;100.00
31005;BME280;17676;52.254;4.490;2023-04-30T09:38:04;102290.56;;;22.53;100.00
31005;BME280;17676;52.254;4.490;2023-04-30T09:40:38;102283.50;;;22.79;100.00
31005;BME280;17676;52.254;4.490;2023-04-30T09:43:07;102295.19;;;21.47;100.00
31005;BME280;17676;52.254;4.490;2023-04-30T09:45:44;102287.78;;;22.53;100.00
31005;BME280;17676;52.254;4.490;2023-04-30T09:48:14;102276.25;;;22.94;100.00
31005;BME280;17676;52.254;4.490;2023-04-30T09:50:40;102288.84;;;22.69;100.00
31005;BME280;17676;52.254;4.490;2023-04-30T09:53:08;102270.34;;;23.24;100.00
31005;BME280;17676;52.254;4.490;2023-04-30T09:58:58;102285.34;;;22.73;100.00
31005;BME280;17676;52.254;4.490;2023-04-30T10:07:11;102276.25;;;22.94;100.00
31005;BME280;17676;52.254;4.490;2023-04-30T10:13:04;102263.47;;;23.10;100.00
31005;BME280;17676;52.254;4.490;2023-04-30T10:19:30;102270.19;;;22.26;100.00
31005;BME280;17676;52.254;4.490;2023-04-30T10:22:16;102275.28;;;21.06;100.00
31005;BME280;17676;52.254;4.490;2023-04-30T10:25:03;102275.66;;;21.37;100.00
31005;BME280;17676;52.254;4.490;2023-04-30T10:27:31;102259.09;;;22.21;100.00
31005;BME280;17676;52.254;4.490;2023-04-30T10:30:24;102271.19;;;22.04;100.00
31005;BME280;17676;52.254;4.490;2023-04-30T10:36:46;102257.84;;;22.12;100.00
31005;BME280;17676;52.254;4.490;2023-04-30T10:39:53;102268.34;;;20.80;100.00
31005;BME280;17676;52.254;4.490;2023-04-30T10:42:52;102257.28;;;21.15;100.00
31005;BME280;17676;52.254;4.490;2023-04-30T10:45:50;102255.00;;;18.83;100.00
31005;BME280;17676;52.254;4.490;2023-04-30T10:48:26;102232.34;;;19.83;100.00
31005;BME280;17676;52.254;4.490;2023-04-30T10:50:57;102242.56;;;21.09;100.00
31005;BME280;17676;52.254;4.490;2023-04-30T10:56:28;102236.00;;;21.94;100.00
31005;BME280;17676;52.254;4.490;2023-04-30T11:02:45;102232.97;;;21.79;100.00
31005;BME280;17676;52.254;4.490;2023-04-30T11:05:19;102228.91;;;22.15;100.00
31005;BME280;17676;52.254;4.490;2023-04-30T11:07:50;102222.13;;;21.89;100.00
31005;BME280;17676;52.254;4.490;2023-04-30T11:10:37;102222.53;;;22.14;100.00
31005;BME280;17676;52.254;4.490;2023-04-30T11:13:18;102204.38;;;22.51;100.00
31005;BME280;17676;52.254;4.490;2023-04-30T11:18:53;102198.97;;;21.46;100.00
31005;BME280;17676;52.254;4.490;2023-04-30T11:22:22;102191.84;;;22.44;100.00
31005;BME280;17676;52.254;4.490;2023-04-30T11:28:25;102197.31;;;21.05;100.00
31005;BME280;17676;52.254;4.490;2023-04-30T11:31:03;102190.72;;;19.68;100.00
31005;BME280;17676;52.254;4.490;2023-04-30T11:33:32;102188.31;;;20.47;100.00
31005;BME280;17676;52.254;4.490;2023-04-30T11:36:03;102192.53;;;21.12;100.00
31005;BME280;17676;52.254;4.490;2023-04-30T11:38:29;102184.28;;;21.57;100.00
31005;BME280;17676;52.254;4.490;2023-04-30T11:41:00;102186.69;;;22.14;100.00
31005;BME280;17676;52.254;4.490;2023-04-30T11:43:28;102174.66;;;21.87;100.00
31005;BME280;17676;52.254;4.490;2023-04-30T11:49:01;102165.06;;;19.86;100.00
31005;BME280;17676;52.254;4.490;2023-04-30T11:51:27;102160.38;;;19.63;100.00
31005;BME280;17676;52.254;4.490;2023-04-30T11:53:55;102159.72;;;20.02;100.00
31005;BME280;17676;52.254;4.490;2023-04-30T11:56:27;102154.69;;;21.08;100.00
31005;BME280;17676;52.254;4.490;2023-04-30T12:02:17;102145.69;;;20.61;100.00
31005;BME280;17676;52.254;4.490;2023-04-30T12:04:47;102150.75;;;19.95;100.00
31005;BME280;17676;52.254;4.490;2023-04-30T12:07:24;102138.06;;;19.71;100.00
31005;BME280;17676;52.254;4.490;2023-04-30T12:09:54;102149.66;;;19.32;100.00
31005;BME280;17676;52.254;4.490;2023-04-30T12:12:50;102156.31;;;20.18;100.00
31005;BME280;17676;52.254;4.490;2023-04-30T12:15:35;102127.19;;;19.88;100.00
31005;BME280;17676;52.254;4.490;2023-04-30T12:18:25;102141.94;;;20.39;100.00
31005;BME280;17676;52.254;4.490;2023-04-30T12:23:53;102118.84;;;20.91;100.00
31005;BME280;17676;52.254;4.490;2023-04-30T12:26:46;102118.25;;;20.38;100.00
31005;BME280;17676;52.254;4.490;2023-04-30T12:29:28;102118.72;;;19.78;100.00
31005;BME280;17676;52.254;4.490;2023-04-30T12:32:09;102126.22;;;19.71;100.00
31005;BME280;17676;52.254;4.490;2023-04-30T12:34:49;102115.38;;;20.33;100.00
31005;BME280;17676;52.254;4.490;2023-04-30T12:37:29;102113.97;;;20.19;100.00
31005;BME280;17676;52.254;4.490;2023-04-30T12:39:58;102123.75;;;20.38;100.00
31005;BME280;17676;52.254;4.490;2023-04-30T12:42:31;102110.59;;;20.17;100.00
31005;BME280;17676;52.254;4.490;2023-04-30T12:48:02;102099.31;;;19.38;100.00
31005;BME280;17676;52.254;4.490;2023-04-30T12:50:28;102115.59;;;19.97;100.00
31005;BME280;17676;52.254;4.490;2023-04-30T12:52:54;102110.00;;;20.27;100.00
31005;BME280;17676;52.254;4.490;2023-04-30T12:59:13;102085.34;;;21.11;100.00
31005;BME280;17676;52.254;4.490;2023-04-30T13:01:48;102107.41;;;20.71;100.00
31005;BME280;17676;52.254;4.490;2023-04-30T13:04:14;102087.00;;;20.44;100.00
31005;BME280;17676;52.254;4.490;2023-04-30T13:06:44;102100.50;;;20.57;100.00
31005;BME280;17676;52.254;4.490;2023-04-30T13:09:11;102103.56;;;20.72;100.00
31005;BME280;17676;52.254;4.490;2023-04-30T13:11:37;102104.94;;;20.86;100.00
31005;BME280;17676;52.254;4.490;2023-04-30T13:14:02;102104.16;;;20.74;100.00
31005;BME280;17676;52.254;4.490;2023-04-30T13:16:29;102096.78;;;20.52;100.00
31005;BME280;17676;52.254;4.490;2023-04-30T13:18:55;102094.47;;;19.98;100.00
31005;BME280;17676;52.254;4.490;2023-04-30T13:21:24;102098.41;;;19.90;100.00
31005;BME280;17676;52.254;4.490;2023-04-30T13:23:50;102081.66;;;20.38;100.00
31005;BME280;17676;52.254;4.490;2023-04-30T13:26:21;102083.25;;;20.62;100.00
31005;BME280;17676;52.254;4.490;2023-04-30T13:28:48;102087.88;;;20.33;100.00
31005;BME280;17676;52.254;4.490;2023-04-30T13:31:14;102075.56;;;20.01;100.00
31005;BME280;17676;52.254;4.490;2023-04-30T13:33:42;102077.50;;;19.78;100.00
31005;BME280;17676;52.254;4.490;2023-04-30T13:36:10;102074.84;;;19.83;100.00
31005;BME280;17676;52.254;4.490;2023-04-30T13:38:39;102072.84;;;19.90;100.00
31005;BME280;17676;52.254;4.490;2023-04-30T13:41:05;102063.75;;;20.12;100.00
31005;BME280;17676;52.254;4.490;2023-04-30T13:43:31;102066.72;;;19.88;100.00
31005;BME280;17676;52.254;4.490;2023-04-30T13:45:57;102063.97;;;19.76;100.00
31005;BME280;17676;52.254;4.490;2023-04-30T13:48:25;102058.22;;;19.55;100.00
31005;BME280;17676;52.254;4.490;2023-04-30T13:50:51;102058.81;;;19.34;100.00
31005;BME280;17676;52.254;4.490;2023-04-30T13:53:16;102057.28;;;19.72;100.00
31005;BME280;17676;52.254;4.490;2023-04-30T13:55:42;102058.75;;;19.86;100.00
31005;BME280;17676;52.254;4.490;2023-04-30T13:58:08;102049.88;;;20.30;100.00
31005;BME280;17676;52.254;4.490;2023-04-30T14:00:33;102058.50;;;19.99;100.00
31005;BME280;17676;52.254;4.490;2023-04-30T14:02:59;102052.53;;;19.68;100.00